createdAt,value
2022-09-02T00:00:01.179Z,0.00
2022-09-02T00:01:01.223Z,0.00
2022-09-02T00:02:01.275Z,0.00
2022-09-02T00:03:01.295Z,0.00
2022-09-02T00:04:01.127Z,0.00
2022-09-02T00:05:01.118Z,0.00
2022-09-02T00:06:01.144Z,0.00
2022-09-02T00:07:01.095Z,0.00
2022-09-02T00:08:01.149Z,0.00
2022-09-02T00:09:01.110Z,0.00
2022-09-02T00:10:01.087Z,0.00
2022-09-02T00:11:01.110Z,0.00
2022-09-02T00:12:01.053Z,0.00
2022-09-02T00:13:01.040Z,0.00
2022-09-02T00:14:01.058Z,0.00
2022-09-02T00:15:01.017Z,0.00
2022-09-02T00:16:01.044Z,0.00
2022-09-02T00:17:01.204Z,0.00
2022-09-02T00:18:00.990Z,0.00
2022-09-02T00:19:00.967Z,0.00
2022-09-02T00:20:00.972Z,0.00
2022-09-02T00:21:00.995Z,0.00
2022-09-02T00:22:00.966Z,0.00
2022-09-02T00:23:00.941Z,0.00
2022-09-02T00:24:00.960Z,0.00
2022-09-02T00:25:00.919Z,0.00
2022-09-02T00:26:00.977Z,0.00
2022-09-02T00:27:00.897Z,0.00
2022-09-02T00:28:00.869Z,0.00
2022-09-02T00:29:00.889Z,0.00
2022-09-02T00:30:00.901Z,0.00
2022-09-02T00:31:00.869Z,0.00
2022-09-02T00:32:00.885Z,0.00
2022-09-02T00:33:00.816Z,0.00
2022-09-02T00:34:00.835Z,0.00
2022-09-02T00:35:00.846Z,0.00
2022-09-02T00:36:00.795Z,0.00
2022-09-02T00:37:00.832Z,0.00
2022-09-02T00:38:00.753Z,0.00
2022-09-02T00:39:00.751Z,0.00
2022-09-02T00:40:00.830Z,0.00
2022-09-02T00:41:00.744Z,0.00
2022-09-02T00:42:00.734Z,0.00
2022-09-02T00:43:00.716Z,0.00
2022-09-02T00:44:00.693Z,0.00
2022-09-02T00:45:00.692Z,0.00
2022-09-02T00:46:00.755Z,0.00
2022-09-02T00:47:00.674Z,0.00
2022-09-02T00:48:00.682Z,0.00
2022-09-02T00:49:00.654Z,0.00
2022-09-02T00:50:00.618Z,0.00
2022-09-02T00:51:00.638Z,0.00
2022-09-02T00:52:00.621Z,0.00
2022-09-02T00:53:00.635Z,0.00
2022-09-02T00:54:00.621Z,0.00
2022-09-02T00:55:00.613Z,0.00
2022-09-02T00:56:00.588Z,0.00
2022-09-02T00:57:00.619Z,0.00
2022-09-02T00:58:00.544Z,0.00
2022-09-02T00:59:00.541Z,0.00
2022-09-02T01:00:00.582Z,0.00
2022-09-02T01:01:00.689Z,0.00
2022-09-02T01:02:00.686Z,0.00
2022-09-02T01:03:00.518Z,0.00
2022-09-02T01:04:00.502Z,0.00
2022-09-02T01:05:00.540Z,0.00
2022-09-02T01:06:00.487Z,0.00
2022-09-02T01:07:00.460Z,0.00
2022-09-02T01:08:00.464Z,0.00
2022-09-02T01:09:00.432Z,0.00
2022-09-02T01:10:00.427Z,0.00
2022-09-02T01:11:00.472Z,0.00
2022-09-02T01:12:00.432Z,0.00
2022-09-02T01:13:00.384Z,0.00
2022-09-02T01:14:00.376Z,0.00
2022-09-02T01:15:00.361Z,0.00
2022-09-02T01:16:00.442Z,0.00
2022-09-02T01:17:00.360Z,0.00
2022-09-02T01:18:00.327Z,0.00
2022-09-02T01:19:00.380Z,0.00
2022-09-02T01:20:00.312Z,0.00
2022-09-02T01:21:00.347Z,0.00
2022-09-02T01:22:00.322Z,0.00
2022-09-02T01:23:00.294Z,0.00
2022-09-02T01:24:00.256Z,0.00
2022-09-02T01:25:00.265Z,0.00
2022-09-02T01:26:00.263Z,0.00
2022-09-02T01:27:00.241Z,0.00
2022-09-02T01:28:00.239Z,0.00
2022-09-02T01:29:00.233Z,0.00
2022-09-02T01:30:00.236Z,0.00
2022-09-02T01:31:00.230Z,0.00
2022-09-02T01:32:00.312Z,0.00
2022-09-02T01:33:00.161Z,0.00
2022-09-02T01:34:00.166Z,0.00
2022-09-02T01:35:00.166Z,0.00
2022-09-02T01:36:00.211Z,0.00
2022-09-02T01:37:00.124Z,0.00
2022-09-02T01:38:00.116Z,0.00
2022-09-02T01:39:00.121Z,0.00
2022-09-02T01:40:00.162Z,0.00
2022-09-02T01:41:00.103Z,0.00
2022-09-02T01:42:00.152Z,0.00
2022-09-02T01:43:00.098Z,0.00
2022-09-02T01:44:00.048Z,0.00
2022-09-02T01:45:00.055Z,0.00
2022-09-02T01:46:00.041Z,0.00
2022-09-02T01:47:00.182Z,0.00
2022-09-02T01:48:00.082Z,0.00
2022-09-02T01:49:00.048Z,0.00
2022-09-02T01:49:59.987Z,0.00
2022-09-02T01:51:00.033Z,0.00
2022-09-02T01:52:00.011Z,0.00
2022-09-02T01:52:59.960Z,0.00
2022-09-02T01:53:59.947Z,0.00
2022-09-02T01:54:59.929Z,0.00
2022-09-02T01:55:59.993Z,0.00
2022-09-02T01:56:59.920Z,0.00
2022-09-02T01:57:59.914Z,0.00
2022-09-02T01:58:59.913Z,0.00
2022-09-02T01:59:59.882Z,0.00
2022-09-02T02:01:00.201Z,0.00
2022-09-02T02:01:59.944Z,0.00
2022-09-02T02:02:59.859Z,0.00
2022-09-02T02:03:59.874Z,0.00
2022-09-02T02:04:59.832Z,0.00
2022-09-02T02:05:59.926Z,0.00
2022-09-02T02:06:59.839Z,0.00
2022-09-02T02:07:59.784Z,0.00
2022-09-02T02:08:59.792Z,0.00
2022-09-02T02:09:59.800Z,0.00
2022-09-02T02:10:59.829Z,0.00
2022-09-02T02:11:59.766Z,0.00
2022-09-02T02:12:59.776Z,0.00
2022-09-02T02:13:59.746Z,0.00
2022-09-02T02:14:59.728Z,0.00
2022-09-02T02:15:59.809Z,0.00
2022-09-02T02:16:59.693Z,0.00
2022-09-02T02:17:59.746Z,0.00
2022-09-02T02:18:59.665Z,0.00
2022-09-02T02:19:59.701Z,0.00
2022-09-02T02:20:59.653Z,0.00
2022-09-02T02:21:59.642Z,0.00
2022-09-02T02:22:59.649Z,0.00
2022-09-02T02:23:59.626Z,0.00
2022-09-02T02:24:59.615Z,0.00
2022-09-02T02:25:59.591Z,0.00
2022-09-02T02:26:59.630Z,0.00
2022-09-02T02:27:59.587Z,0.00
2022-09-02T02:28:59.597Z,0.00
2022-09-02T02:29:59.544Z,0.00
2022-09-02T02:30:59.555Z,0.00
2022-09-02T02:31:59.566Z,0.00
2022-09-02T02:32:59.510Z,0.00
2022-09-02T02:33:59.526Z,0.00
2022-09-02T02:34:59.510Z,0.00
2022-09-02T02:35:59.483Z,0.00
2022-09-02T02:36:59.511Z,0.00
2022-09-02T02:37:59.498Z,0.00
2022-09-02T02:38:59.473Z,0.00
2022-09-02T02:39:59.434Z,0.00
2022-09-02T02:40:59.465Z,0.00
2022-09-02T02:41:59.431Z,0.00
2022-09-02T02:42:59.407Z,0.00
2022-09-02T02:43:59.401Z,0.00
2022-09-02T02:44:59.418Z,0.00
2022-09-02T02:45:59.420Z,0.00
2022-09-02T02:46:59.437Z,0.00
2022-09-02T02:47:59.359Z,0.00
2022-09-02T02:48:59.349Z,0.00
2022-09-02T02:49:59.336Z,0.00
2022-09-02T02:50:59.401Z,0.00
2022-09-02T02:51:59.307Z,0.00
2022-09-02T02:52:59.302Z,0.00
2022-09-02T02:53:59.295Z,0.00
2022-09-02T02:54:59.279Z,0.00
2022-09-02T02:55:59.291Z,0.00
2022-09-02T02:56:59.256Z,0.00
2022-09-02T02:57:59.302Z,0.00
2022-09-02T02:58:59.261Z,0.00
2022-09-02T02:59:59.219Z,0.00
2022-09-02T03:00:59.236Z,0.00
2022-09-02T03:01:59.384Z,0.00
2022-09-02T03:02:59.295Z,0.00
2022-09-02T03:03:59.173Z,0.00
2022-09-02T03:04:59.178Z,0.00
2022-09-02T03:05:59.177Z,0.00
2022-09-02T03:06:59.146Z,0.00
2022-09-02T03:07:59.131Z,0.00
2022-09-02T03:08:59.155Z,0.00
2022-09-02T03:09:59.130Z,0.00
2022-09-02T03:10:59.125Z,0.00
2022-09-02T03:11:59.099Z,0.00
2022-09-02T03:12:59.089Z,0.00
2022-09-02T03:13:59.087Z,0.00
2022-09-02T03:14:59.058Z,0.00
2022-09-02T03:15:59.168Z,0.00
2022-09-02T03:16:59.047Z,0.00
2022-09-02T03:17:59.101Z,0.00
2022-09-02T03:18:59.047Z,0.00
2022-09-02T03:19:59.016Z,0.00
2022-09-02T03:20:59.014Z,0.00
2022-09-02T03:21:59.034Z,0.00
2022-09-02T03:22:58.987Z,0.00
2022-09-02T03:23:59.000Z,0.00
2022-09-02T03:24:58.960Z,0.00
2022-09-02T03:25:58.961Z,0.00
2022-09-02T03:26:58.976Z,0.00
2022-09-02T03:27:58.933Z,0.00
2022-09-02T03:28:58.921Z,0.00
2022-09-02T03:29:58.923Z,0.00
2022-09-02T03:30:58.974Z,0.00
2022-09-02T03:31:58.901Z,0.00
2022-09-02T03:33:03.242Z,0.00
2022-09-02T03:33:59.874Z,0.00
2022-09-02T03:34:58.901Z,0.00
2022-09-02T03:35:58.856Z,0.00
2022-09-02T03:36:58.843Z,0.00
2022-09-02T03:37:58.826Z,0.00
2022-09-02T03:38:58.823Z,0.00
2022-09-02T03:39:58.823Z,0.00
2022-09-02T03:40:58.800Z,0.00
2022-09-02T03:41:58.783Z,0.00
2022-09-02T03:43:00.385Z,0.00
2022-09-02T03:43:58.758Z,0.00
2022-09-02T03:44:58.777Z,0.00
2022-09-02T03:45:58.804Z,0.00
2022-09-02T03:46:58.755Z,0.00
2022-09-02T03:47:58.726Z,0.00
2022-09-02T03:48:58.720Z,0.00
2022-09-02T03:49:58.690Z,0.00
2022-09-02T03:50:58.684Z,0.00
2022-09-02T03:51:58.693Z,0.00
2022-09-02T03:52:58.670Z,0.00
2022-09-02T03:53:58.645Z,0.00
2022-09-02T03:54:58.689Z,0.00
2022-09-02T03:55:58.619Z,0.00
2022-09-02T03:56:58.621Z,0.00
2022-09-02T03:57:58.624Z,0.00
2022-09-02T03:58:58.605Z,0.00
2022-09-02T03:59:58.584Z,0.00
2022-09-02T04:00:58.642Z,0.00
2022-09-02T04:01:58.716Z,0.00
2022-09-02T04:02:58.601Z,0.00
2022-09-02T04:03:58.547Z,0.00
2022-09-02T04:04:58.526Z,0.00
2022-09-02T04:05:58.602Z,0.00
2022-09-02T04:06:58.530Z,0.00
2022-09-02T04:07:58.506Z,0.00
2022-09-02T04:08:58.479Z,0.00
2022-09-02T04:09:58.483Z,0.00
2022-09-02T04:10:58.496Z,0.00
2022-09-02T04:11:58.445Z,0.00
2022-09-02T04:12:58.452Z,0.00
2022-09-02T04:13:58.459Z,0.00
2022-09-02T04:14:58.416Z,4.00
2022-09-02T04:16:01.641Z,4.00
2022-09-02T04:16:58.420Z,0.00
2022-09-02T04:17:58.402Z,4.00
2022-09-02T04:18:58.373Z,4.00
2022-09-02T04:19:58.366Z,4.00
2022-09-02T04:20:58.349Z,4.00
2022-09-02T04:21:58.344Z,4.00
2022-09-02T04:22:58.359Z,4.00
2022-09-02T04:23:58.376Z,8.00
2022-09-02T04:24:58.327Z,12.00
2022-09-02T04:25:58.316Z,12.00
2022-09-02T04:27:03.333Z,16.00
2022-09-02T04:27:59.304Z,20.00
2022-09-02T04:28:58.320Z,24.00
2022-09-02T04:29:58.246Z,28.00
2022-09-02T04:30:58.309Z,32.00
2022-09-02T04:31:58.234Z,36.00
2022-09-02T04:32:58.228Z,48.00
2022-09-02T04:33:58.223Z,56.00
2022-09-02T04:34:58.213Z,64.00
2022-09-02T04:35:58.249Z,72.00
2022-09-02T04:36:58.210Z,84.00
2022-09-02T04:37:58.158Z,100.00
2022-09-02T04:38:58.154Z,116.00
2022-09-02T04:39:58.150Z,128.00
2022-09-02T04:40:58.225Z,144.00
2022-09-02T04:41:58.138Z,164.00
2022-09-02T04:42:58.104Z,180.00
2022-09-02T04:43:58.150Z,204.00
2022-09-02T04:44:58.119Z,228.00
2022-09-02T04:45:58.165Z,252.00
2022-09-02T04:46:58.065Z,280.00
2022-09-02T04:47:58.091Z,308.00
2022-09-02T04:48:58.050Z,340.00
2022-09-02T04:49:58.040Z,372.00
2022-09-02T04:50:58.091Z,404.00
2022-09-02T04:51:58.036Z,444.00
2022-09-02T04:52:58.028Z,480.00
2022-09-02T04:53:58.010Z,520.00
2022-09-02T04:54:58.003Z,568.00
2022-09-02T04:55:58.350Z,616.00
2022-09-02T04:56:58.002Z,660.00
2022-09-02T04:57:57.956Z,708.00
2022-09-02T04:58:57.937Z,756.00
2022-09-02T04:59:57.928Z,804.00
2022-09-02T05:00:57.922Z,852.00
2022-09-02T05:01:58.035Z,900.00
2022-09-02T05:02:57.949Z,944.00
2022-09-02T05:03:57.880Z,992.00
2022-09-02T05:04:57.911Z,1036.00
2022-09-02T05:05:57.893Z,1080.00
2022-09-02T05:06:57.842Z,1132.00
2022-09-02T05:07:57.848Z,1176.00
2022-09-02T05:08:57.945Z,1220.00
2022-09-02T05:09:57.821Z,1264.00
2022-09-02T05:10:57.827Z,1312.00
2022-09-02T05:11:57.799Z,1360.00
2022-09-02T05:12:57.816Z,1404.00
2022-09-02T05:13:57.794Z,1452.00
2022-09-02T05:14:57.817Z,1496.00
2022-09-02T05:15:57.892Z,1540.00
2022-09-02T05:16:57.743Z,1592.00
2022-09-02T05:17:57.738Z,1660.00
2022-09-02T05:18:57.757Z,1732.00
2022-09-02T05:19:57.760Z,1780.00
2022-09-02T05:20:57.732Z,1836.00
2022-09-02T05:21:57.702Z,1868.00
2022-09-02T05:22:57.730Z,1900.00
2022-09-02T05:23:57.686Z,1940.00
2022-09-02T05:24:57.725Z,1984.00
2022-09-02T05:25:57.657Z,2032.00
2022-09-02T05:26:57.640Z,2072.00
2022-09-02T05:27:57.693Z,2120.00
2022-09-02T05:28:57.623Z,2160.00
2022-09-02T05:29:57.662Z,2208.00
2022-09-02T05:30:57.667Z,2256.00
2022-09-02T05:31:57.607Z,2304.00
2022-09-02T05:32:57.571Z,2352.00
2022-09-02T05:33:57.584Z,2400.00
2022-09-02T05:34:57.549Z,2440.00
2022-09-02T05:35:57.613Z,2480.00
2022-09-02T05:36:57.530Z,2516.00
2022-09-02T05:38:00.756Z,2564.00
2022-09-02T05:38:57.501Z,2604.00
2022-09-02T05:39:57.750Z,2648.00
2022-09-02T05:40:57.557Z,2696.00
2022-09-02T05:41:57.480Z,2744.00
2022-09-02T05:42:57.479Z,2780.00
2022-09-02T05:43:57.466Z,2824.00
2022-09-02T05:44:57.470Z,2880.00
2022-09-02T05:45:57.493Z,2928.00
2022-09-02T05:46:57.516Z,2972.00
2022-09-02T05:47:58.362Z,3020.00
2022-09-02T05:48:57.398Z,3060.00
2022-09-02T05:49:57.381Z,3108.00
2022-09-02T05:50:58.630Z,3156.00
2022-09-02T05:51:57.373Z,3200.00
2022-09-02T05:52:57.356Z,3248.00
2022-09-02T05:53:57.341Z,3292.00
2022-09-02T05:54:57.332Z,3340.00
2022-09-02T05:55:57.564Z,3384.00
2022-09-02T05:56:57.935Z,3428.00
2022-09-02T05:57:57.301Z,3464.00
2022-09-02T05:58:57.306Z,3516.00
2022-09-02T05:59:57.271Z,3568.00
2022-09-02T06:00:57.279Z,3612.00
2022-09-02T06:01:57.402Z,3640.00
2022-09-02T06:02:57.313Z,3676.00
2022-09-02T06:03:57.229Z,3724.00
2022-09-02T06:04:57.721Z,3780.00
2022-09-02T06:06:01.753Z,3832.00
2022-09-02T06:06:58.222Z,3860.00
2022-09-02T06:07:57.190Z,3896.00
2022-09-02T06:08:57.177Z,3928.00
2022-09-02T06:09:57.166Z,3968.00
2022-09-02T06:10:57.160Z,4008.00
2022-09-02T06:11:57.209Z,4044.00
2022-09-02T06:12:57.148Z,4072.00
2022-09-02T06:13:57.621Z,4104.00
2022-09-02T06:14:57.165Z,4136.00
2022-09-02T06:15:57.172Z,4176.00
2022-09-02T06:16:57.094Z,4220.00
2022-09-02T06:17:57.081Z,4264.00
2022-09-02T06:18:57.117Z,4308.00
2022-09-02T06:19:57.146Z,4360.00
2022-09-02T06:20:57.080Z,4416.00
2022-09-02T06:21:57.044Z,4568.00
2022-09-02T06:22:57.236Z,4640.00
2022-09-02T06:23:57.152Z,4628.00
2022-09-02T06:24:57.025Z,4636.00
2022-09-02T06:25:57.045Z,4924.00
2022-09-02T06:26:56.995Z,5408.00
2022-09-02T06:27:56.972Z,5816.00
2022-09-02T06:28:57.009Z,6284.00
2022-09-02T06:29:56.951Z,6764.00
2022-09-02T06:30:57.225Z,6860.00
2022-09-02T06:31:57.114Z,6608.00
2022-09-02T06:32:57.019Z,6768.00
2022-09-02T06:33:56.939Z,6968.00
2022-09-02T06:34:56.896Z,7004.00
2022-09-02T06:35:56.914Z,6348.00
2022-09-02T06:36:56.908Z,5484.00
2022-09-02T06:37:56.935Z,5424.00
2022-09-02T06:38:56.880Z,5296.00
2022-09-02T06:39:57.243Z,5492.00
2022-09-02T06:40:56.950Z,6236.00
2022-09-02T06:41:56.874Z,6880.00
2022-09-02T06:42:56.810Z,6132.00
2022-09-02T06:43:56.796Z,5888.00
2022-09-02T06:44:56.796Z,5772.00
2022-09-02T06:45:56.879Z,6164.00
2022-09-02T06:46:56.766Z,6508.00
2022-09-02T06:47:56.788Z,6800.00
2022-09-02T06:48:56.942Z,7216.00
2022-09-02T06:49:57.146Z,8104.00
2022-09-02T06:50:57.316Z,9856.00
2022-09-02T06:51:56.734Z,12476.00
2022-09-02T06:52:56.711Z,15328.00
2022-09-02T06:53:56.691Z,17504.00
2022-09-02T06:54:56.732Z,19200.00
2022-09-02T06:55:56.702Z,19680.00
2022-09-02T06:56:56.700Z,19360.00
2022-09-02T06:57:56.787Z,18848.00
2022-09-02T06:58:57.165Z,18912.00
2022-09-02T07:00:00.015Z,19488.00
2022-09-02T07:00:57.686Z,19008.00
2022-09-02T07:01:56.822Z,19552.00
2022-09-02T07:02:56.599Z,19616.00
2022-09-02T07:03:56.608Z,20224.00
2022-09-02T07:04:57.639Z,20864.00
2022-09-02T07:05:56.569Z,20736.00
2022-09-02T07:06:56.789Z,21440.00
2022-09-02T07:07:58.453Z,22592.00
2022-09-02T07:08:56.529Z,23392.00
2022-09-02T07:09:56.520Z,24384.00
2022-09-02T07:10:56.510Z,22048.00
2022-09-02T07:11:58.154Z,18560.00
2022-09-02T07:12:56.556Z,15744.00
2022-09-02T07:13:56.470Z,14784.00
2022-09-02T07:14:56.473Z,16000.00
2022-09-02T07:15:56.906Z,20320.00
2022-09-02T07:16:57.205Z,26688.00
2022-09-02T07:17:56.447Z,30368.00
2022-09-02T07:18:56.428Z,28160.00
2022-09-02T07:19:56.412Z,21312.00
2022-09-02T07:20:56.439Z,22592.00
2022-09-02T07:21:56.529Z,22784.00
2022-09-02T07:22:56.690Z,32960.00
2022-09-02T07:23:56.402Z,37600.00
2022-09-02T07:24:56.546Z,32704.00
2022-09-02T07:25:57.140Z,26400.00
2022-09-02T07:26:56.352Z,24512.00
2022-09-02T07:27:56.326Z,21024.00
2022-09-02T07:28:56.313Z,17248.00
2022-09-02T07:29:56.334Z,14596.00
2022-09-02T07:30:59.628Z,11812.00
2022-09-02T07:31:56.308Z,9472.00
2022-09-02T07:32:56.314Z,8824.00
2022-09-02T07:33:57.123Z,8484.00
2022-09-02T07:34:56.942Z,7872.00
2022-09-02T07:35:56.243Z,7184.00
2022-09-02T07:37:00.240Z,7136.00
2022-09-02T07:37:57.235Z,6832.00
2022-09-02T07:38:56.232Z,7068.00
2022-09-02T07:39:56.239Z,6696.00
2022-09-02T07:40:56.753Z,6660.00
2022-09-02T07:41:56.241Z,6600.00
2022-09-02T07:43:59.571Z,6516.00
2022-09-02T07:44:56.149Z,6540.00
2022-09-02T07:45:56.215Z,6492.00
2022-09-02T07:46:56.156Z,6444.00
2022-09-02T07:47:56.159Z,6376.00
2022-09-02T07:48:56.119Z,6424.00
2022-09-02T07:50:57.115Z,6348.00
2022-09-02T07:51:56.271Z,6376.00
2022-09-02T07:52:56.171Z,6368.00
2022-09-02T07:53:56.044Z,6308.00
2022-09-02T07:54:56.033Z,6292.00
2022-09-02T07:55:56.039Z,6288.00
2022-09-02T07:56:56.083Z,6300.00
2022-09-02T07:57:56.037Z,6288.00
2022-09-02T07:58:56.011Z,6236.00
2022-09-02T07:59:56.156Z,6244.00
2022-09-02T08:00:56.447Z,6252.00
2022-09-02T08:01:56.034Z,6220.00
2022-09-02T08:02:56.121Z,6244.00
2022-09-02T08:03:55.932Z,6240.00
2022-09-02T08:04:55.960Z,6244.00
2022-09-02T08:05:55.912Z,6272.00
2022-09-02T08:06:55.968Z,6280.00
2022-09-02T08:07:55.895Z,6292.00
2022-09-02T08:08:56.171Z,6304.00
2022-09-02T08:09:56.190Z,6312.00
2022-09-02T08:10:56.030Z,6324.00
2022-09-02T08:11:55.871Z,6352.00
2022-09-02T08:12:55.839Z,6364.00
2022-09-02T08:13:55.884Z,6380.00
2022-09-02T08:14:55.839Z,6388.00
2022-09-02T08:15:55.857Z,6416.00
2022-09-02T08:16:55.888Z,6440.00
2022-09-02T08:17:56.045Z,6472.00
2022-09-02T08:18:55.957Z,6500.00
2022-09-02T08:19:55.879Z,6544.00
2022-09-02T08:20:55.755Z,6588.00
2022-09-02T08:21:55.765Z,6636.00
2022-09-02T08:23:05.283Z,6680.00
2022-09-02T08:23:56.739Z,6744.00
2022-09-02T08:24:55.764Z,6800.00
2022-09-02T08:25:55.697Z,6860.00
2022-09-02T08:26:55.765Z,6912.00
2022-09-02T08:27:56.807Z,6972.00
2022-09-02T08:28:55.766Z,7008.00
2022-09-02T08:29:55.678Z,7040.00
2022-09-02T08:30:55.645Z,7116.00
2022-09-02T08:31:55.725Z,7136.00
2022-09-02T08:32:55.627Z,7164.00
2022-09-02T08:33:55.648Z,7192.00
2022-09-02T08:34:55.615Z,7228.00
2022-09-02T08:35:55.708Z,7288.00
2022-09-02T08:36:56.627Z,7368.00
2022-09-02T08:37:55.569Z,7512.00
2022-09-02T08:38:55.560Z,7760.00
2022-09-02T08:39:55.550Z,8224.00
2022-09-02T08:40:55.594Z,9184.00
2022-09-02T08:41:55.650Z,11820.00
2022-09-02T08:42:55.517Z,23392.00
2022-09-02T08:43:55.566Z,41632.00
2022-09-02T08:44:55.543Z,49152.00
2022-09-02T08:45:56.109Z,44096.00
2022-09-02T08:46:55.482Z,26720.00
2022-09-02T08:47:55.475Z,27872.00
2022-09-02T08:48:55.453Z,47296.00
2022-09-02T08:49:55.466Z,55296.00
2022-09-02T08:50:55.441Z,58464.00
2022-09-02T08:51:55.462Z,58688.00
2022-09-02T08:52:55.445Z,56800.00
2022-09-02T08:53:55.467Z,53152.00
2022-09-02T08:54:55.735Z,36832.00
2022-09-02T08:55:55.391Z,17760.00
2022-09-02T08:56:55.408Z,13136.00
2022-09-02T08:57:55.427Z,11688.00
2022-09-02T08:58:56.481Z,13532.00
2022-09-02T08:59:55.348Z,26432.00
2022-09-02T09:00:55.508Z,26112.00
2022-09-02T09:01:55.388Z,13256.00
2022-09-02T09:02:55.460Z,9672.00
2022-09-02T09:03:55.603Z,9212.00
2022-09-02T09:04:55.275Z,9140.00
2022-09-02T09:05:55.294Z,9156.00
2022-09-02T09:06:55.303Z,9284.00
2022-09-02T09:07:55.248Z,9584.00
2022-09-02T09:08:55.271Z,10056.00
2022-09-02T09:09:55.314Z,11536.00
2022-09-02T09:10:55.240Z,18400.00
2022-09-02T09:11:55.313Z,32224.00
2022-09-02T09:12:55.351Z,28000.00
2022-09-02T09:13:55.180Z,20576.00
2022-09-02T09:14:55.221Z,11560.00
2022-09-02T09:15:55.168Z,12068.00
2022-09-02T09:16:55.224Z,12736.00
2022-09-02T09:17:55.155Z,14524.00
2022-09-02T09:18:55.149Z,36800.00
2022-09-02T09:19:55.154Z,50976.00
2022-09-02T09:20:55.290Z,27584.00
2022-09-02T09:21:55.165Z,16416.00
2022-09-02T09:22:55.095Z,15904.00
2022-09-02T09:23:55.104Z,31264.00
2022-09-02T09:24:55.144Z,51616.00
2022-09-02T09:25:55.090Z,61664.00
2022-09-02T09:26:55.055Z,69696.00
2022-09-02T09:27:55.077Z,75744.00
2022-09-02T09:28:55.046Z,78208.00
2022-09-02T09:29:55.139Z,78944.00
2022-09-02T09:30:55.038Z,78656.00
2022-09-02T09:31:55.092Z,79104.00
2022-09-02T09:32:54.988Z,77600.00
2022-09-02T09:33:54.967Z,78688.00
2022-09-02T09:34:54.956Z,79680.00
2022-09-02T09:35:54.964Z,80224.00
2022-09-02T09:36:55.023Z,71488.00
2022-09-02T09:37:55.250Z,37280.00
2022-09-02T09:38:55.220Z,43328.00
2022-09-02T09:39:54.944Z,76256.00
2022-09-02T09:40:54.980Z,83072.00
2022-09-02T09:41:54.907Z,78880.00
2022-09-02T09:42:54.966Z,76320.00
2022-09-02T09:43:54.859Z,75584.00
2022-09-02T09:44:54.869Z,78432.00
2022-09-02T09:45:54.949Z,78016.00
2022-09-02T09:46:54.985Z,77760.00
2022-09-02T09:47:58.475Z,77120.00
2022-09-02T09:48:54.869Z,74496.00
2022-09-02T09:49:54.818Z,79552.00
2022-09-02T09:50:54.786Z,81728.00
2022-09-02T09:51:54.819Z,84096.00
2022-09-02T09:52:54.771Z,81792.00
2022-09-02T09:53:54.754Z,80512.00
2022-09-02T09:54:54.800Z,82944.00
2022-09-02T09:55:54.852Z,82464.00
2022-09-02T09:56:55.184Z,70784.00
2022-09-02T09:57:54.787Z,36896.00
2022-09-02T09:58:54.711Z,46528.00
2022-09-02T09:59:54.709Z,77504.00
2022-09-02T10:00:54.778Z,83872.00
2022-09-02T10:01:54.719Z,81728.00
2022-09-02T10:02:54.668Z,80576.00
2022-09-02T10:03:54.701Z,80416.00
2022-09-02T10:04:54.821Z,82624.00
2022-09-02T10:05:54.737Z,79296.00
2022-09-02T10:06:54.652Z,82496.00
2022-09-02T10:07:54.614Z,84928.00
2022-09-02T10:08:54.598Z,88768.00
2022-09-02T10:09:54.598Z,72512.00
2022-09-02T10:10:54.663Z,37728.00
2022-09-02T10:11:54.590Z,61472.00
2022-09-02T10:12:54.599Z,89888.00
2022-09-02T10:13:54.612Z,88096.00
2022-09-02T10:14:54.889Z,85856.00
2022-09-02T10:15:54.576Z,87136.00
2022-09-02T10:16:54.619Z,86816.00
2022-09-02T10:17:54.509Z,85632.00
2022-09-02T10:18:54.501Z,71872.00
2022-09-02T10:19:54.566Z,40224.00
2022-09-02T10:21:16.954Z,64000.00
2022-09-02T10:21:55.499Z,88096.00
2022-09-02T10:22:59.495Z,90560.00
2022-09-02T10:23:55.816Z,90624.00
2022-09-02T10:24:54.484Z,88736.00
2022-09-02T10:25:54.434Z,82496.00
2022-09-02T10:26:54.569Z,84864.00
2022-09-02T10:27:54.444Z,71296.00
2022-09-02T10:28:54.448Z,43072.00
2022-09-02T10:29:54.385Z,65376.00
2022-09-02T10:30:54.376Z,87712.00
2022-09-02T10:31:55.306Z,86944.00
2022-09-02T10:32:54.521Z,85216.00
2022-09-02T10:33:54.370Z,86848.00
2022-09-02T10:34:54.329Z,85824.00
2022-09-02T10:35:54.360Z,84544.00
2022-09-02T10:36:54.435Z,60928.00
2022-09-02T10:37:54.318Z,45920.00
2022-09-02T10:38:54.294Z,77504.00
2022-09-02T10:39:54.378Z,90048.00
2022-09-02T10:40:54.467Z,89632.00
2022-09-02T10:41:54.476Z,87360.00
2022-09-02T10:42:54.256Z,76768.00
2022-09-02T10:43:56.745Z,46528.00
2022-09-02T10:44:58.347Z,64960.00
2022-09-02T10:45:54.296Z,83328.00
2022-09-02T10:46:54.301Z,85216.00
2022-09-02T10:47:54.211Z,87968.00
2022-09-02T10:48:54.439Z,62176.00
2022-09-02T10:49:54.290Z,54016.00
2022-09-02T10:50:54.290Z,84992.00
2022-09-02T10:51:54.174Z,88800.00
2022-09-02T10:52:54.164Z,79040.00
2022-09-02T10:53:54.147Z,52384.00
2022-09-02T10:54:54.139Z,69856.00
2022-09-02T10:55:54.209Z,87424.00
2022-09-02T10:56:54.154Z,73824.00
2022-09-02T10:57:54.176Z,54720.00
2022-09-02T10:58:54.212Z,78016.00
2022-09-02T10:59:54.097Z,62112.00
2022-09-02T11:00:54.155Z,37952.00
2022-09-02T11:01:54.097Z,38944.00
2022-09-02T11:02:54.044Z,60992.00
2022-09-02T11:03:54.112Z,89408.00
2022-09-02T11:04:55.089Z,92768.00
2022-09-02T11:05:54.023Z,88512.00
2022-09-02T11:07:06.324Z,86944.00
2022-09-02T11:07:55.145Z,85536.00
2022-09-02T11:08:54.024Z,86368.00
2022-09-02T11:09:54.001Z,87296.00
2022-09-02T11:10:53.982Z,91680.00
2022-09-02T11:11:55.879Z,94176.00
2022-09-02T11:12:54.006Z,90656.00
2022-09-02T11:13:53.990Z,84896.00
2022-09-02T11:14:53.953Z,82784.00
2022-09-02T11:15:54.042Z,84224.00
2022-09-02T11:16:54.063Z,85824.00
2022-09-02T11:17:54.105Z,90368.00
2022-09-02T11:18:53.908Z,92416.00
2022-09-02T11:19:53.908Z,94752.00
2022-09-02T11:20:53.903Z,91872.00
2022-09-02T11:21:53.887Z,88704.00
2022-09-02T11:22:54.300Z,91648.00
2022-09-02T11:23:53.892Z,88000.00
2022-09-02T11:24:53.839Z,87968.00
2022-09-02T11:25:54.057Z,87328.00
2022-09-02T11:26:53.830Z,87392.00
2022-09-02T11:27:53.812Z,87936.00
2022-09-02T11:28:53.810Z,85248.00
2022-09-02T11:29:53.780Z,84160.00
2022-09-02T11:30:53.834Z,83424.00
2022-09-02T11:31:53.788Z,81312.00
2022-09-02T11:32:53.765Z,79584.00
2022-09-02T11:33:53.907Z,81792.00
2022-09-02T11:34:54.019Z,84192.00
2022-09-02T11:35:53.773Z,82080.00
2022-09-02T11:36:53.732Z,82528.00
2022-09-02T11:37:53.728Z,81984.00
2022-09-02T11:38:53.696Z,85824.00
2022-09-02T11:40:02.309Z,89792.00
2022-09-02T11:41:54.802Z,87488.00
2022-09-02T11:42:53.760Z,89120.00
2022-09-02T11:44:53.629Z,79616.00
2022-09-02T11:45:53.663Z,78560.00
2022-09-02T11:46:53.699Z,74752.00
2022-09-02T11:47:53.605Z,77184.00
2022-09-02T11:48:53.647Z,81824.00
2022-09-02T11:49:53.584Z,82816.00
2022-09-02T11:50:53.592Z,82208.00
2022-09-02T11:51:54.140Z,82176.00
2022-09-02T11:52:54.718Z,82656.00
2022-09-02T11:53:56.095Z,81856.00
2022-09-02T11:54:53.575Z,84224.00
2022-09-02T11:55:53.537Z,86720.00
2022-09-02T11:56:53.511Z,88192.00
2022-09-02T11:57:53.508Z,86528.00
2022-09-02T11:58:53.498Z,84672.00
2022-09-02T11:59:53.566Z,76608.00
2022-09-02T12:00:53.517Z,80512.00
2022-09-02T12:01:53.600Z,82176.00
2022-09-02T12:02:53.468Z,83008.00
2022-09-02T12:04:27.556Z,81856.00
2022-09-02T12:05:00.451Z,82624.00
2022-09-02T12:05:54.555Z,84544.00
2022-09-02T12:06:53.483Z,82432.00
2022-09-02T12:07:53.460Z,82016.00
2022-09-02T12:08:53.402Z,84512.00
2022-09-02T12:09:53.621Z,83552.00
2022-09-02T12:10:53.436Z,81568.00
2022-09-02T12:11:53.424Z,78912.00
2022-09-02T12:12:53.362Z,75584.00
2022-09-02T12:13:53.375Z,44288.00
2022-09-02T12:14:53.369Z,16192.00
2022-09-02T12:15:54.222Z,27648.00
2022-09-02T12:16:53.345Z,63392.00
2022-09-02T12:17:53.360Z,80768.00
2022-09-02T12:18:53.364Z,80896.00
2022-09-02T12:19:53.330Z,78848.00
2022-09-02T12:20:53.314Z,77952.00
2022-09-02T12:21:53.295Z,78112.00
2022-09-02T12:22:53.315Z,77376.00
2022-09-02T12:23:53.285Z,79712.00
2022-09-02T12:24:53.276Z,84416.00
2022-09-02T12:25:53.305Z,87392.00
2022-09-02T12:26:53.324Z,88800.00